Rocky Hill, Texas
Current Conditions -  °F | °C
As of 6:51 PM on Sunday 21 Dec 2014 (Local Time) from KCNW Reporting Station
Overcast Overcast  
Wind Chill: 54°   Ceiling: 1800
Heat Index: 54°   Visibility: 10mi
Dew Point: 48°   Wind: 9mph
Humidity: 82%   Direction: 140°SE
Pressure: 29.86"   Gusts: NA
Location:  31.3313°N, 96.8629°W
Report Text: KCNW 220051Z 14008KT 10SM BKN018 OVC022 12/09 A2986
Loading
Personal Weather Stations






























Interactive Weather Map New forecast layout! Learn more

10-Day Weather Forecast

Advertisements
Track Severe Weather on mobile